Time;durP1;ratioP1;P1;durP2;ratioP2;P2;SDS_P1;SDS_P2;PMS_P1;PMS_P2;Temp;Humidity;BMP_temperature;BMP_pressure;BME280_temperature;BME280_humidity;BME280_pressure;Samples;Min_cycle;Max_cycle;Signal;HPM_P1;HPM_P2
2023/03/04 00:01:12;;;;;;;17.58;2.60;;;;;;;7.86;51.96;102585.19;5124933;28;20068;-62
2023/03/04 00:03:40;;;;;;;15.27;2.33;;;;;;;7.86;52.29;102588.72;5119470;28;20513;-62
2023/03/04 00:06:08;;;;;;;16.70;3.28;;;;;;;7.85;52.44;102579.00;5118527;28;20039;-62
2023/03/04 00:08:37;;;;;;;21.50;3.17;;;;;;;7.85;52.18;102581.69;5115725;28;20103;-62
2023/03/04 00:11:05;;;;;;;14.75;2.58;;;;;;;7.85;52.44;102592.41;5126351;28;20052;-63
2023/03/04 00:13:33;;;;;;;23.88;3.42;;;;;;;7.82;52.65;102585.53;5117869;27;20052;-63
2023/03/04 00:16:01;;;;;;;14.15;3.00;;;;;;;7.82;52.09;102580.16;5121527;28;20048;-62
2023/03/04 00:18:28;;;;;;;17.50;2.67;;;;;;;7.80;52.43;102582.16;5118397;27;20532;-62
2023/03/04 00:20:56;;;;;;;17.92;3.88;;;;;;;7.80;52.91;102574.13;5123119;28;20042;-62
2023/03/04 00:23:24;;;;;;;17.45;3.55;;;;;;;7.80;52.98;102575.97;5122052;28;20082;-62
2023/03/04 00:25:53;;;;;;;19.00;4.25;;;;;;;7.79;53.12;102572.47;5121865;28;20048;-62
2023/03/04 00:28:21;;;;;;;16.38;2.78;;;;;;;7.81;52.79;102569.63;5116565;28;20071;-62
2023/03/04 00:30:49;;;;;;;17.77;3.53;;;;;;;7.80;53.00;102568.78;5119205;27;20043;-63
2023/03/04 00:33:16;;;;;;;16.20;3.17;;;;;;;7.81;52.68;102574.97;5119479;27;20068;-63
2023/03/04 00:35:44;;;;;;;15.73;3.33;;;;;;;7.79;52.35;102575.13;5119628;28;20146;-62
2023/03/04 00:38:12;;;;;;;13.48;2.88;;;;;;;7.80;52.98;102573.31;5113905;27;20689;-62
2023/03/04 00:40:40;;;;;;;15.27;3.78;;;;;;;7.78;52.70;102572.63;5108976;28;20555;-62
2023/03/04 00:43:09;;;;;;;18.80;3.75;;;;;;;7.77;52.80;102573.63;5112898;28;20071;-62
2023/03/04 00:45:37;;;;;;;14.32;2.92;;;;;;;7.77;53.08;102569.09;5118524;28;20071;-62
2023/03/04 00:48:05;;;;;;;12.27;3.90;;;;;;;7.76;53.46;102574.63;5114302;28;20074;-63
2023/03/04 00:50:33;;;;;;;17.17;2.58;;;;;;;7.73;53.03;102575.78;5123622;28;20122;-62
2023/03/04 00:53:01;;;;;;;17.85;3.85;;;;;;;7.73;53.44;102562.41;5118325;28;20063;-61
2023/03/04 00:55:29;;;;;;;13.32;2.80;;;;;;;7.73;53.67;102566.91;5114807;28;20058;-62
2023/03/04 00:57:57;;;;;;;16.08;3.72;;;;;;;7.73;53.28;102572.28;5121291;28;20056;-62
2023/03/04 01:00:26;;;;;;;15.25;3.50;;;;;;;7.71;53.53;102572.44;5112824;28;20047;-63
2023/03/04 01:02:54;;;;;;;12.02;3.60;;;;;;;7.70;53.32;102572.59;5113940;28;20058;-62
2023/03/04 01:05:22;;;;;;;17.92;3.40;;;;;;;7.71;53.03;102576.94;5122790;28;20050;-62
2023/03/04 01:07:50;;;;;;;17.45;3.05;;;;;;;7.71;53.18;102580.47;5119845;28;20044;-63
2023/03/04 01:10:18;;;;;;;14.57;4.40;;;;;;;7.72;53.97;102581.28;5113255;28;21486;-63
2023/03/04 01:12:45;;;;;;;17.73;3.08;;;;;;;7.73;53.73;102582.97;5112600;28;20462;-63
2023/03/04 01:15:14;;;;;;;14.55;3.75;;;;;;;7.73;53.46;102578.47;5121584;27;20085;-62
2023/03/04 01:17:44;;;;;;;20.58;4.00;;;;;;;7.74;53.17;102573.94;5115731;28;20444;-62
2023/03/04 01:20:13;;;;;;;16.30;3.22;;;;;;;7.76;53.46;102578.13;5116583;27;20067;-62
2023/03/04 01:22:41;;;;;;;13.23;3.35;;;;;;;7.74;53.15;102582.81;5111690;27;20102;-62
2023/03/04 01:25:10;;;;;;;15.65;4.57;;;;;;;7.75;53.60;102578.31;5120470;28;20118;-61
2023/03/04 01:27:38;;;;;;;14.80;2.88;;;;;;;7.74;52.97;102582.81;5115909;28;20111;-62
2023/03/04 01:30:07;;;;;;;13.00;2.70;;;;;;;7.74;53.96;102577.47;5112511;27;20036;-61
2023/03/04 01:32:34;;;;;;;13.88;3.50;;;;;;;7.72;53.55;102574.09;5123161;28;20346;-62
2023/03/04 01:35:04;;;;;;;14.13;3.25;;;;;;;7.72;53.96;102570.59;5110972;28;20124;-62
2023/03/04 01:37:32;;;;;;;16.95;2.80;;;;;;;7.72;53.63;102571.44;5123331;28;20044;-62
2023/03/04 01:40:00;;;;;;;14.68;2.72;;;;;;;7.71;53.29;102568.91;5118738;28;20133;-62
2023/03/04 01:42:31;;;;;;;14.40;2.83;;;;;;;7.69;54.14;102557.53;5113265;28;20051;-63
2023/03/04 01:44:59;;;;;;;12.50;2.97;;;;;;;7.68;53.79;102554.03;5115832;28;20123;-62
2023/03/04 01:47:29;;;;;;;17.02;2.83;;;;;;;7.65;53.83;102550.81;5125384;27;20098;-62
2023/03/04 01:49:58;;;;;;;13.32;3.45;;;;;;;7.64;54.52;102563.38;5124441;27;20051;-62
2023/03/04 01:52:28;;;;;;;14.88;3.17;;;;;;;7.65;54.20;102545.47;5124113;28;20074;-63
2023/03/04 01:54:56;;;;;;;15.40;2.85;;;;;;;7.66;54.15;102544.47;5121016;28;20113;-61
2023/03/04 01:57:25;;;;;;;23.88;3.25;;;;;;;7.63;54.04;102555.50;5124804;28;20048;-62
2023/03/04 02:00:18;;;;;;;11.88;2.35;;;;;;;7.63;53.58;102548.31;5116960;28;20047;-62
2023/03/04 02:02:46;;;;;;;18.95;3.42;;;;;;;7.62;54.12;102537.78;5113565;28;20046;-62
2023/03/04 02:05:14;;;;;;;18.10;2.78;;;;;;;7.65;53.95;102546.31;5115325;27;20043;-62
2023/03/04 02:07:44;;;;;;;16.20;2.55;;;;;;;7.66;54.16;102533.78;5127686;27;20063;-62
2023/03/04 02:10:12;;;;;;;14.35;3.53;;;;;;;7.65;54.17;102535.59;5108915;28;20501;-61
2023/03/04 02:12:40;;;;;;;15.75;3.65;;;;;;;7.66;54.02;102529.25;5113087;28;20138;-62
2023/03/04 02:15:09;;;;;;;21.42;3.60;;;;;;;7.68;53.39;102531.78;5120568;28;20057;-62
2023/03/04 02:17:37;;;;;;;12.77;2.65;;;;;;;7.69;53.96;102522.75;5114023;28;20084;-62
2023/03/04 02:20:17;;;;;;;16.13;3.08;;;;;;;7.69;54.33;102530.78;5120541;28;20083;-63
2023/03/04 02:22:53;;;;;;;19.27;2.88;;;;;;;7.68;53.63;102524.59;5116003;28;20063;-63
2023/03/04 02:25:28;;;;;;;14.07;2.40;;;;;;;7.69;53.61;102528.09;5119513;28;20071;-61
2023/03/04 02:27:57;;;;;;;14.13;2.42;;;;;;;7.67;54.42;102530.94;5112429;28;20126;-62
2023/03/04 02:30:25;;;;;;;14.52;2.78;;;;;;;7.63;53.52;102518.88;5107928;28;20043;-63
2023/03/04 02:32:53;;;;;;;16.38;2.85;;;;;;;7.61;53.92;102515.53;5120641;28;20054;-62
2023/03/04 02:35:21;;;;;;;12.82;2.85;;;;;;;7.62;54.31;102511.84;5119163;28;20047;-62
2023/03/04 02:37:49;;;;;;;14.45;2.97;;;;;;;7.66;53.59;102523.91;5120481;28;20060;-62
2023/03/04 02:40:23;;;;;;;15.18;2.92;;;;;;;7.66;54.76;102515.03;5112739;28;20111;-64
2023/03/04 02:42:51;;;;;;;19.27;2.90;;;;;;;7.66;54.13;102515.03;5120013;28;20115;-62
2023/03/04 02:45:37;;;;;;;9.05;2.33;;;;;;;7.64;54.42;102517.88;5110880;27;20043;-63
2023/03/04 02:48:05;;;;;;;13.88;2.83;;;;;;;7.64;54.83;102509.00;5118968;27;20067;-61
2023/03/04 02:50:36;;;;;;;13.50;2.83;;;;;;;7.64;54.65;102509.00;5116628;28;20079;-62
2023/03/04 02:53:04;;;;;;;11.80;2.58;;;;;;;7.63;54.83;102501.97;5115696;28;20054;-63
2023/03/04 02:55:32;;;;;;;10.05;2.00;;;;;;;7.63;54.29;102499.31;5115424;28;20050;-63
2023/03/04 02:58:00;;;;;;;11.75;2.50;;;;;;;7.64;54.86;102504.50;5122904;28;20107;-63
2023/03/04 03:00:28;;;;;;;18.55;3.03;;;;;;;7.63;54.32;102497.47;5116242;28;20067;-62
2023/03/04 03:02:58;;;;;;;13.40;2.72;;;;;;;7.62;54.85;102497.63;5111489;28;20044;-62
2023/03/04 03:05:28;;;;;;;11.60;3.10;;;;;;;7.62;54.82;102494.97;5114275;28;20051;-63
2023/03/04 03:07:56;;;;;;;11.80;2.92;;;;;;;7.61;54.93;102502.16;5111987;28;20063;-63
2023/03/04 03:10:24;;;;;;;13.88;2.53;;;;;;;7.59;54.83;102496.13;5109316;28;20047;-62
2023/03/04 03:12:52;;;;;;;9.45;2.50;;;;;;;7.60;54.69;102491.59;5119968;28;20047;-63
2023/03/04 03:15:20;;;;;;;17.05;2.78;;;;;;;7.59;54.73;102498.78;5119721;28;20043;-62
2023/03/04 03:17:48;;;;;;;12.85;3.15;;;;;;;7.60;54.37;102492.44;5121032;28;20073;-62
2023/03/04 03:20:18;;;;;;;14.65;2.55;;;;;;;7.60;54.32;102491.59;5115332;28;20054;-63
2023/03/04 03:22:46;;;;;;;10.18;2.05;;;;;;;7.54;55.01;102493.09;5120942;28;20039;-62
2023/03/04 03:25:16;;;;;;;9.60;2.28;;;;;;;7.57;54.99;102491.94;5117181;28;20036;-62
2023/03/04 03:27:44;;;;;;;9.23;2.22;;;;;;;7.57;54.54;102497.28;5117607;28;20127;-62
2023/03/04 03:30:13;;;;;;;13.45;2.25;;;;;;;7.54;54.88;102489.56;5116426;28;20143;-62
2023/03/04 03:32:41;;;;;;;10.68;2.70;;;;;;;7.53;54.82;102485.22;5122142;28;20078;-61
2023/03/04 03:35:10;;;;;;;14.82;2.60;;;;;;;7.51;54.62;102478.19;5115757;28;20052;-62
2023/03/04 03:37:39;;;;;;;9.57;2.38;;;;;;;7.54;54.77;102478.88;5116115;28;20046;-63
2023/03/04 03:40:08;;;;;;;16.27;4.82;;;;;;;7.55;54.46;102486.75;5117062;28;20106;-62
2023/03/04 03:42:35;;;;;;;12.25;1.58;;;;;;;7.56;55.04;102484.91;5116525;28;20424;-63
2023/03/04 03:45:03;;;;;;;13.00;1.92;;;;;;;7.57;55.20;102478.56;5122357;28;20102;-62
2023/03/04 03:47:31;;;;;;;9.45;1.73;;;;;;;7.55;54.38;102478.72;5120220;28;20131;-62
2023/03/04 03:49:59;;;;;;;10.63;2.22;;;;;;;7.55;55.14;102477.88;5117860;28;20071;-63
2023/03/04 03:52:27;;;;;;;15.35;2.17;;;;;;;7.52;54.93;102481.72;5120885;28;20079;-63
2023/03/04 03:54:56;;;;;;;17.33;3.15;;;;;;;7.54;54.72;102474.34;5121659;28;20051;-63
2023/03/04 03:57:24;;;;;;;13.32;1.83;;;;;;;7.54;54.77;102478.88;5110169;28;20128;-63
2023/03/04 03:59:51;;;;;;;5.43;1.95;;;;;;;7.54;55.23;102485.06;5121804;28;20058;-63
2023/03/04 04:02:19;;;;;;;8.32;2.13;;;;;;;7.55;55.30;102483.22;5116415;28;20047;-63
2023/03/04 04:04:47;;;;;;;13.52;3.45;;;;;;;7.54;55.37;102481.56;5107988;28;20063;-62
2023/03/04 04:07:15;;;;;;;9.52;2.30;;;;;;;7.54;55.05;102492.25;5113771;28;20076;-62
2023/03/04 04:09:42;;;;;;;13.25;1.65;;;;;;;7.54;55.49;102476.19;5109932;28;20321;-62
2023/03/04 04:12:14;;;;;;;10.73;2.30;;;;;;;7.51;54.68;102486.22;5119863;28;20473;-61
2023/03/04 04:14:42;;;;;;;12.05;2.20;;;;;;;7.51;54.99;102478.19;5115388;28;20043;-62
2023/03/04 04:17:10;;;;;;;8.23;1.92;;;;;;;7.54;54.91;102484.22;5110510;27;20642;-62
2023/03/04 04:19:39;;;;;;;16.83;2.30;;;;;;;7.54;55.05;102484.22;5124619;28;20138;-62
2023/03/04 04:22:08;;;;;;;12.98;3.28;;;;;;;7.51;55.17;102480.88;5117896;28;20039;-63
2023/03/04 04:24:35;;;;;;;11.95;2.10;;;;;;;7.48;54.97;102481.19;5115466;28;20040;-63
2023/03/04 04:27:04;;;;;;;11.00;2.30;;;;;;;7.48;55.50;102486.53;5116808;28;20120;-62
2023/03/04 04:29:33;;;;;;;17.63;2.63;;;;;;;7.49;55.35;102485.53;5120246;28;20071;-62
2023/03/04 04:32:01;;;;;;;10.15;2.40;;;;;;;7.49;55.61;102479.34;5122432;28;20050;-63
2023/03/04 04:34:28;;;;;;;7.78;1.67;;;;;;;7.49;55.81;102485.53;5121593;27;20469;-63
2023/03/04 04:36:56;;;;;;;15.38;2.30;;;;;;;7.49;55.38;102493.56;5116421;28;20047;-62
2023/03/04 04:39:24;;;;;;;15.07;2.17;;;;;;;7.47;55.51;102486.72;5112773;28;20473;-62
2023/03/04 04:41:52;;;;;;;11.75;2.88;;;;;;;7.48;55.55;102496.41;5123071;28;20143;-62
2023/03/04 04:44:19;;;;;;;9.65;2.28;;;;;;;7.47;55.75;102492.91;5119971;28;20115;-62
2023/03/04 04:46:48;;;;;;;11.85;2.42;;;;;;;7.48;55.48;102493.72;5123890;28;20039;-62
2023/03/04 04:49:16;;;;;;;10.40;2.40;;;;;;;7.47;55.17;102494.72;5119267;28;20063;-63
2023/03/04 04:51:44;;;;;;;9.02;2.33;;;;;;;7.47;55.17;102494.72;5125261;27;20047;-62
2023/03/04 04:54:14;;;;;;;15.50;2.15;;;;;;;7.46;55.22;102496.56;5118618;27;20051;-62
2023/03/04 04:56:42;;;;;;;12.55;2.15;;;;;;;7.44;55.31;102489.69;5125778;28;20074;-63
2023/03/04 04:59:10;;;;;;;9.50;2.05;;;;;;;7.46;55.11;102496.56;5118952;27;20049;-63
2023/03/04 05:01:37;;;;;;;9.48;2.28;;;;;;;7.45;54.81;102500.25;5124301;28;20081;-63
2023/03/04 05:04:06;;;;;;;11.73;2.00;;;;;;;7.44;54.69;102497.72;5117173;28;20070;-62
2023/03/04 05:06:34;;;;;;;8.90;3.13;;;;;;;7.41;54.87;102493.53;5120047;28;20389;-63
2023/03/04 05:09:03;;;;;;;11.02;1.92;;;;;;;7.43;55.32;102493.38;5117018;28;20116;-62
2023/03/04 05:11:30;;;;;;;16.40;3.20;;;;;;;7.40;55.02;102499.88;5117354;28;20454;-62
2023/03/04 05:13:58;;;;;;;15.55;3.58;;;;;;;7.38;55.24;102499.22;5121443;28;20055;-62
2023/03/04 05:16:26;;;;;;;10.68;2.10;;;;;;;7.39;55.50;102497.38;5120308;28;20057;-62
2023/03/04 05:18:54;;;;;;;19.77;3.25;;;;;;;7.38;55.14;102491.19;5115116;28;20126;-63
2023/03/04 05:21:23;;;;;;;13.25;2.17;;;;;;;7.37;55.69;102492.19;5113768;28;20044;-61
2023/03/04 05:23:51;;;;;;;12.93;2.28;;;;;;;7.35;54.92;102488.00;5122856;28;20099;-62
2023/03/04 05:26:19;;;;;;;11.27;2.15;;;;;;;7.33;55.25;102488.16;5122963;28;20082;-62
2023/03/04 05:28:47;;;;;;;13.45;2.40;;;;;;;7.34;55.03;102491.66;5116348;27;20099;-62
2023/03/04 05:31:15;;;;;;;12.48;2.67;;;;;;;7.32;54.97;102488.31;5115869;27;20067;-62
2023/03/04 05:33:43;;;;;;;7.18;1.98;;;;;;;7.32;55.44;102486.47;5112432;28;20048;-62
2023/03/04 05:36:11;;;;;;;9.02;1.77;;;;;;;7.32;55.27;102494.50;5123751;28;20057;-61
2023/03/04 05:38:40;;;;;;;15.55;2.60;;;;;;;7.32;54.98;102497.19;5116108;28;20044;-63
2023/03/04 05:41:08;;;;;;;10.25;4.03;;;;;;;7.34;55.25;102497.00;5120890;28;20047;-63
2023/03/04 05:43:41;;;;;;;11.10;2.45;;;;;;;7.30;54.84;102504.53;5118057;28;20040;-61
2023/03/04 05:46:13;;;;;;;13.05;1.90;;;;;;;7.20;55.35;102485.09;5112125;28;20075;-63
2023/03/04 05:48:41;;;;;;;14.93;2.33;;;;;;;7.28;55.17;102498.50;5117891;28;20135;-63
2023/03/04 05:51:09;;;;;;;14.00;2.10;;;;;;;7.28;55.67;102506.50;5121293;28;20050;-62
2023/03/04 05:53:38;;;;;;;14.98;2.08;;;;;;;7.27;55.31;102504.84;5111044;28;20111;-62
2023/03/04 05:56:09;;;;;;;14.63;3.15;;;;;;;7.28;55.43;102508.34;5121365;28;20077;-62
2023/03/04 05:58:37;;;;;;;11.65;2.95;;;;;;;7.23;55.44;102495.47;4762407;28;10000447;-61
2023/03/04 06:01:06;;;;;;;9.82;2.95;;;;;;;7.26;55.65;102505.84;5118459;28;20134;-61
2023/03/04 06:03:33;;;;;;;14.48;2.70;;;;;;;7.27;55.22;102504.84;5116821;27;20055;-61
2023/03/04 06:06:01;;;;;;;14.88;2.95;;;;;;;7.26;55.33;102507.66;5116174;27;20062;-63
2023/03/04 06:08:29;;;;;;;10.95;2.00;;;;;;;7.25;55.15;102503.31;5115082;28;20105;-62
2023/03/04 06:10:57;;;;;;;8.40;1.70;;;;;;;7.24;55.61;102505.16;5119574;28;20146;-62
2023/03/04 06:13:27;;;;;;;15.18;2.22;;;;;;;7.25;55.13;102508.66;5122762;27;20073;-61
2023/03/04 06:15:58;;;;;;;8.82;2.03;;;;;;;7.24;55.44;102505.16;5108208;28;20151;-60
2023/03/04 06:18:27;;;;;;;11.70;2.20;;;;;;;7.22;55.76;102501.81;5111141;28;20051;-62
2023/03/04 06:20:57;;;;;;;7.68;2.55;;;;;;;7.17;55.34;102496.94;5117037;28;20135;-61
2023/03/04 06:23:25;;;;;;;7.32;1.63;;;;;;;7.25;55.60;102509.50;5114997;27;20461;-61
2023/03/04 06:25:53;;;;;;;15.82;1.92;;;;;;;7.26;55.45;102513.03;5119780;28;20127;-61
2023/03/04 06:28:21;;;;;;;10.70;2.55;;;;;;;7.26;55.36;102516.53;5114483;28;20101;-61
2023/03/04 06:30:53;;;;;;;9.57;2.13;;;;;;;7.18;55.29;102511.97;5121311;27;20063;-61
2023/03/04 06:33:21;;;;;;;12.50;2.45;;;;;;;7.19;55.57;102510.97;5114629;27;20048;-61
2023/03/04 06:35:48;;;;;;;10.43;2.10;;;;;;;7.22;55.75;102519.69;5119221;28;20580;-60
2023/03/04 06:38:16;;;;;;;18.38;2.75;;;;;;;7.18;55.62;102517.31;5105777;28;20052;-63
2023/03/04 06:40:44;;;;;;;11.18;2.88;;;;;;;7.21;56.07;102518.00;5125094;27;20111;-62
2023/03/04 06:43:12;;;;;;;11.65;2.58;;;;;;;7.15;56.32;102522.16;5117633;27;20047;-62
2023/03/04 06:45:40;;;;;;;6.18;2.15;;;;;;;7.13;56.30;102519.63;5115439;28;20078;-59
2023/03/04 06:48:09;;;;;;;9.88;2.60;;;;;;;7.14;56.39;102520.47;5110573;28;20083;-62
2023/03/04 06:50:39;;;;;;;9.02;1.90;;;;;;;7.15;56.57;102520.31;5112470;28;20147;-62
2023/03/04 06:53:06;;;;;;;11.30;1.60;;;;;;;7.22;56.22;102535.72;5117967;27;20111;-62
2023/03/04 06:55:34;;;;;;;14.23;2.25;;;;;;;7.19;56.31;102535.03;5118386;27;20055;-62
2023/03/04 06:58:02;;;;;;;12.70;1.52;;;;;;;7.19;56.84;102531.53;5115758;27;20075;-60
2023/03/04 07:00:30;;;;;;;12.75;2.03;;;;;;;7.22;56.72;102538.41;5118386;27;20043;-60
2023/03/04 07:02:58;;;;;;;8.50;1.52;;;;;;;7.22;56.47;102536.56;5118862;27;20047;-60
2023/03/04 07:05:27;;;;;;;7.57;2.03;;;;;;;7.13;56.85;102533.00;5116342;27;20050;-62
2023/03/04 07:07:55;;;;;;;9.38;1.60;;;;;;;7.19;57.44;102542.22;5116600;27;20058;-61
2023/03/04 07:10:23;;;;;;;9.07;2.72;;;;;;;7.22;56.89;102541.06;5117847;28;20087;-61
2023/03/04 07:12:51;;;;;;;6.55;1.80;;;;;;;7.22;56.74;102544.59;5120560;27;20511;-62
2023/03/04 07:15:19;;;;;;;7.63;1.55;;;;;;;7.23;57.21;102540.06;5114438;28;20123;-62
2023/03/04 07:17:46;;;;;;;8.32;2.97;;;;;;;7.23;57.16;102548.09;5115264;28;20040;-63
2023/03/04 07:20:14;;;;;;;5.13;1.90;;;;;;;7.24;57.17;102549.78;5117737;28;20071;-61
2023/03/04 07:22:43;;;;;;;7.43;1.52;;;;;;;7.24;57.17;102544.44;5116659;28;20114;-61
2023/03/04 07:25:12;;;;;;;8.30;2.08;;;;;;;7.25;56.91;102554.97;5125832;28;20051;-60
2023/03/04 07:27:39;;;;;;;7.28;1.77;;;;;;;7.24;57.68;102550.63;5118219;28;20047;-60
2023/03/04 07:30:09;;;;;;;9.60;2.35;;;;;;;7.23;57.87;102551.63;5115943;28;20114;-61
2023/03/04 07:32:37;;;;;;;4.63;1.73;;;;;;;7.24;57.55;102552.44;5114456;28;20057;-60
2023/03/04 07:35:06;;;;;;;6.07;1.67;;;;;;;7.24;57.58;102555.97;5111721;28;20054;-61
2023/03/04 07:37:34;;;;;;;12.48;2.08;;;;;;;7.25;57.98;102551.44;5116584;28;20112;-62
2023/03/04 07:40:03;;;;;;;5.25;1.48;;;;;;;7.27;57.76;102566.34;5118948;28;20058;-62
2023/03/04 07:42:31;;;;;;;5.53;1.50;;;;;;;7.26;57.97;102567.34;5114273;28;20347;-62
2023/03/04 07:45:00;;;;;;;10.70;1.92;;;;;;;7.27;58.11;102562.84;5113637;28;20111;-61
2023/03/04 07:47:28;;;;;;;7.75;3.03;;;;;;;7.23;58.12;102556.97;5115331;28;20546;-61
2023/03/04 07:49:56;;;;;;;7.60;2.45;;;;;;;7.33;58.33;102572.91;5113660;28;21366;-61
2023/03/04 07:52:23;;;;;;;8.38;1.92;;;;;;;7.43;57.74;102577.13;5105886;27;20063;-62
2023/03/04 07:54:51;;;;;;;8.40;2.00;;;;;;;7.45;57.44;102569.78;5118233;27;20039;-62
2023/03/04 07:57:20;;;;;;;9.55;2.58;;;;;;;7.46;57.81;102571.47;5122323;28;20073;-62
2023/03/04 07:59:48;;;;;;;7.47;1.90;;;;;;;7.46;58.16;102574.16;5116571;28;20105;-62
2023/03/04 08:02:16;;;;;;;9.55;2.10;;;;;;;7.45;58.58;102575.16;5116697;28;20044;-61
2023/03/04 08:04:44;;;;;;;10.80;1.77;;;;;;;7.43;58.82;102578.97;5121448;27;20155;-61
2023/03/04 08:07:11;;;;;;;15.52;2.28;;;;;;;7.43;58.29;102577.13;5119473;28;20058;-64
2023/03/04 08:09:39;;;;;;;13.43;2.20;;;;;;;7.40;58.92;102579.28;5115184;28;20075;-63
2023/03/04 08:12:07;;;;;;;5.72;1.90;;;;;;;7.57;58.23;102586.41;5118171;27;20083;-62
2023/03/04 08:14:36;;;;;;;10.80;2.10;;;;;;;7.78;58.16;102581.50;5115892;28;20059;-62
2023/03/04 08:17:04;;;;;;;9.20;2.30;;;;;;;7.93;57.44;102578.19;5108402;28;20066;-61
2023/03/04 08:19:32;;;;;;;6.88;1.63;;;;;;;8.15;56.72;102577.59;5119628;28;20138;-63
2023/03/04 08:22:00;;;;;;;9.55;2.17;;;;;;;8.30;55.85;102577.81;5122297;28;20055;-61
2023/03/04 08:24:28;;;;;;;11.90;2.03;;;;;;;8.46;55.50;102578.69;5116886;27;20417;-63
2023/03/04 08:26:56;;;;;;;6.03;1.85;;;;;;;8.62;54.79;102579.72;5107092;28;20067;-62
2023/03/04 08:29:25;;;;;;;8.75;1.98;;;;;;;8.71;54.81;102578.69;5119367;28;20047;-62
2023/03/04 08:31:55;;;;;;;6.88;1.73;;;;;;;8.62;55.47;102582.41;5120824;28;20247;-62
2023/03/04 08:34:25;;;;;;;9.70;1.70;;;;;;;8.50;55.80;102575.69;5121468;28;20059;-62
2023/03/04 08:36:53;;;;;;;13.63;2.20;;;;;;;8.35;56.00;102584.38;5116756;28;20043;-62
2023/03/04 08:39:21;;;;;;;20.70;2.20;;;;;;;8.23;57.19;102582.13;5117377;28;20126;-62
2023/03/04 08:41:49;;;;;;;6.15;2.05;;;;;;;8.10;56.69;102582.59;5110139;28;20058;-62
2023/03/04 08:44:17;;;;;;;8.82;1.85;;;;;;;7.98;57.29;102586.59;5119006;28;20162;-62
2023/03/04 08:46:45;;;;;;;8.73;2.65;;;;;;;7.88;58.19;102581.38;5113693;28;20127;-62
2023/03/04 08:49:14;;;;;;;8.00;2.92;;;;;;;7.84;57.84;102583.53;5109688;27;20043;-61
2023/03/04 08:51:44;;;;;;;8.00;2.33;;;;;;;7.81;57.94;102578.50;5123753;27;20369;-62
2023/03/04 08:54:11;;;;;;;8.35;2.25;;;;;;;7.79;57.77;102580.50;5119202;28;20144;-62
2023/03/04 08:56:40;;;;;;;13.38;2.40;;;;;;;7.76;58.13;102578.13;5116408;28;20051;-62
2023/03/04 08:59:08;;;;;;;8.65;2.30;;;;;;;7.75;58.36;102581.81;5116962;28;20052;-61
2023/03/04 09:01:36;;;;;;;9.05;2.30;;;;;;;7.68;58.20;102583.44;5122083;27;20048;-60
2023/03/04 09:04:04;;;;;;;13.63;2.47;;;;;;;7.64;59.02;102576.75;5110384;27;20063;-60
2023/03/04 09:06:33;;;;;;;11.00;3.03;;;;;;;7.64;58.00;102576.75;5118131;27;20075;-61
2023/03/04 09:09:01;;;;;;;9.25;3.33;;;;;;;7.65;58.75;102580.25;5118783;28;20051;-61
2023/03/04 09:11:28;;;;;;;9.48;2.10;;;;;;;7.65;59.29;102578.41;5114907;28;20147;-64
2023/03/04 09:13:56;;;;;;;6.22;2.00;;;;;;;7.64;58.39;102574.06;5114866;28;20175;-62
2023/03/04 09:16:24;;;;;;;8.68;2.45;;;;;;;7.62;58.35;102572.56;5112902;28;20044;-62
2023/03/04 09:18:52;;;;;;;11.30;2.03;;;;;;;7.56;59.16;102571.34;5107315;27;20051;-61
2023/03/04 09:21:20;;;;;;;8.65;2.35;;;;;;;7.56;59.50;102566.00;5116196;28;20052;-61
2023/03/04 09:23:49;;;;;;;9.23;2.13;;;;;;;7.53;59.17;102566.31;5119825;28;20677;-62
2023/03/04 09:26:20;;;;;;;5.18;1.65;;;;;;;7.47;59.24;102566.97;5106176;28;20039;-62
2023/03/04 09:28:51;;;;;;;11.35;1.75;;;;;;;7.46;59.79;102560.78;5110481;28;20426;-62
2023/03/04 09:31:19;;;;;;;14.20;3.63;;;;;;;7.46;59.52;102567.97;5104750;28;20044;-63
2023/03/04 09:33:48;;;;;;;7.55;2.15;;;;;;;7.41;60.04;102562.25;5114364;28;20036;-64
2023/03/04 09:36:16;;;;;;;7.45;1.90;;;;;;;7.38;59.28;102563.41;5115506;28;20100;-62
2023/03/04 09:38:44;;;;;;;7.15;2.08;;;;;;;7.36;60.24;102557.38;5106333;28;20058;-62
2023/03/04 09:41:18;;;;;;;13.23;1.73;;;;;;;7.38;59.68;102567.91;5116400;28;21230;-61
2023/03/04 09:43:48;;;;;;;7.00;1.77;;;;;;;7.42;59.85;102571.94;5111035;28;20044;-65
2023/03/04 09:46:22;;;;;;;9.98;2.33;;;;;;;7.42;60.21;102571.94;5117564;28;20058;-64
2023/03/04 09:48:52;;;;;;;13.48;1.80;;;;;;;7.44;60.08;102554.75;5114172;27;20097;-62
2023/03/04 09:51:23;;;;;;;9.57;2.03;;;;;;;7.46;59.65;102557.25;5118493;28;20047;-63
2023/03/04 09:54:06;;;;;;;10.90;1.80;;;;;;;7.50;59.54;102548.75;5109239;28;20043;-63
2023/03/04 09:56:38;;;;;;;13.07;2.97;;;;;;;7.58;59.78;102557.81;5118209;28;20047;-61
2023/03/04 09:59:15;;;;;;;6.22;1.67;;;;;;;7.61;60.04;102558.34;5108978;28;20082;-61
2023/03/04 10:01:48;;;;;;;;;;;;;;;7.64;60.00;102559.84;5115378;28;20051;-60
2023/03/04 10:04:21;;;;;;;11.27;1.63;;;;;;;7.69;59.59;102558.38;5126762;27;19958;-60
2023/03/04 10:06:53;;;;;;;3.97;1.60;;;;;;;7.69;59.77;102555.69;5113845;28;20126;-62
2023/03/04 10:09:25;;;;;;;5.18;1.55;;;;;;;7.70;60.07;102545.84;5113938;28;20461;-63
2023/03/04 10:12:02;;;;;;;10.57;2.70;;;;;;;7.72;59.86;102550.03;5113521;28;20048;-61
2023/03/04 10:14:33;;;;;;;;;;;;;;;7.73;60.21;102549.03;5105640;28;20055;-62
2023/03/04 10:17:08;;;;;;;6.20;1.60;;;;;;;7.72;59.52;102547.34;5112140;28;19924;-63
2023/03/04 10:20:03;;;;;;;4.82;1.65;;;;;;;7.69;59.45;102547.66;5123593;27;20067;-64
2023/03/04 10:22:36;;;;;;;4.50;1.52;;;;;;;7.65;60.25;102546.31;5100144;27;20052;-62
2023/03/04 10:25:17;;;;;;;7.13;1.50;;;;;;;7.58;60.06;102536.41;5113239;28;20047;-64
2023/03/04 10:27:51;;;;;;;5.05;1.23;;;;;;;7.63;60.32;102552.81;5110233;28;20039;-63
2023/03/04 10:30:30;;;;;;;8.25;1.90;;;;;;;7.58;60.62;102555.97;5109456;28;20139;-64
2023/03/04 10:32:58;;;;;;;4.28;1.17;;;;;;;7.60;60.68;102550.47;5110690;28;20048;-63
2023/03/04 10:35:33;;;;;;;3.35;1.63;;;;;;;7.66;59.79;102539.13;5114453;28;20082;-63
2023/03/04 10:38:03;;;;;;;3.35;1.10;;;;;;;7.71;59.46;102537.63;5112337;28;20089;-63
2023/03/04 10:40:38;;;;;;;2.75;1.13;;;;;;;7.72;59.51;102538.47;5117292;27;21074;-63
2023/03/04 10:43:14;;;;;;;7.53;1.20;;;;;;;7.73;60.14;102530.28;5109028;28;20078;-63
2023/03/04 10:45:43;;;;;;;5.20;1.63;;;;;;;7.75;59.40;102535.47;5108809;28;20043;-62
2023/03/04 10:48:20;;;;;;;2.45;1.10;;;;;;;7.79;59.57;102531.47;5111825;28;20051;-62
2023/03/04 10:50:47;;;;;;;5.57;1.23;;;;;;;7.83;59.22;102528.31;5113714;28;20047;-63
2023/03/04 10:53:32;;;;;;;7.40;1.30;;;;;;;7.86;59.58;102527.16;5112971;28;20044;-63
2023/03/04 10:56:01;;;;;;;3.08;1.10;;;;;;;7.86;59.71;102535.19;5113578;28;20109;-63
2023/03/04 10:58:30;;;;;;;4.60;1.05;;;;;;;7.82;58.65;102531.16;5114042;28;20078;-62
2023/03/04 11:01:04;;;;;;;5.20;1.10;;;;;;;7.82;59.10;102529.31;5116679;28;20601;-62
2023/03/04 11:03:35;;;;;;;5.32;2.40;;;;;;;7.82;58.70;102525.81;5116408;28;20152;-63
2023/03/04 11:06:10;;;;;;;6.50;1.23;;;;;;;7.78;58.82;102527.13;5112386;28;20039;-61
2023/03/04 11:08:39;;;;;;;4.60;1.40;;;;;;;7.76;58.78;102521.94;5114281;28;20055;-61
2023/03/04 11:11:22;;;;;;;4.10;1.20;;;;;;;7.70;59.06;102508.38;5116537;28;20134;-61
2023/03/04 11:13:56;;;;;;;7.82;1.35;;;;;;;7.81;58.79;102518.78;5113911;28;20167;-61
2023/03/04 11:16:27;;;;;;;4.47;1.15;;;;;;;7.81;59.20;102513.41;5110934;28;20047;-62
2023/03/04 11:19:00;;;;;;;5.75;1.50;;;;;;;7.81;59.31;102526.81;5109134;28;20048;-63
2023/03/04 11:21:32;;;;;;;7.38;1.15;;;;;;;7.72;59.38;102495.66;5108252;28;20074;-64
2023/03/04 11:24:03;;;;;;;4.55;1.27;;;;;;;7.82;59.90;102509.75;5110994;28;20056;-62
2023/03/04 11:26:39;;;;;;;5.35;1.90;;;;;;;7.81;59.72;102505.38;5116272;28;20054;-62
2023/03/04 11:29:15;;;;;;;6.03;1.70;;;;;;;7.79;59.51;102507.38;5111260;28;20070;-62
2023/03/04 11:31:49;;;;;;;4.90;1.40;;;;;;;7.80;60.01;102507.22;5116715;28;20054;-62
2023/03/04 11:34:34;;;;;;;6.63;1.70;;;;;;;7.83;59.51;102506.91;5113834;28;20051;-62
2023/03/04 11:37:07;;;;;;;4.90;1.40;;;;;;;7.87;59.52;102504.75;5111509;28;20056;-63
2023/03/04 11:39:38;;;;;;;3.90;1.63;;;;;;;7.91;59.66;102506.09;5106191;28;21213;-63